Time;durP1;ratioP1;P1;durP2;ratioP2;P2;SDS_P1;SDS_P2;PMS_P1;PMS_P2;Temp;Humidity;BMP_temperature;BMP_pressure;BME280_temperature;BME280_humidity;BME280_pressure;Samples;Min_cycle;Max_cycle;Signal;HPM_P1;HPM_P2
2024/04/23 00:01:26;;;;;;;16.92;5.93;;;;;;;2.02;100.00;102142.50;5345410;26;20011;-68
2024/04/23 00:03:51;;;;;;;17.77;6.40;;;;;;;1.94;100.00;102135.94;5348586;26;20336;-69
2024/04/23 00:06:16;;;;;;;19.33;6.50;;;;;;;1.91;100.00;102139.25;5348718;26;20455;-68
2024/04/23 00:08:42;;;;;;;18.15;6.40;;;;;;;1.96;100.00;102142.13;5317657;26;19993;-68
2024/04/23 00:11:07;;;;;;;18.40;6.18;;;;;;;1.98;100.00;102134.41;5348270;26;20004;-68
2024/04/23 00:13:32;;;;;;;18.70;6.20;;;;;;;2.00;100.00;102138.00;5346609;26;19993;-69
2024/04/23 00:15:58;;;;;;;20.90;6.60;;;;;;;1.99;100.00;102139.69;5348064;26;20043;-70
2024/04/23 00:18:23;;;;;;;19.75;6.60;;;;;;;1.89;100.00;102139.97;5348512;26;20047;-68
2024/04/23 00:20:48;;;;;;;18.13;6.47;;;;;;;1.87;100.00;102131.16;5348351;26;20455;-71
2024/04/23 00:23:14;;;;;;;18.80;6.80;;;;;;;1.88;100.00;102132.97;5348312;26;20024;-68
2024/04/23 00:25:40;;;;;;;18.83;6.72;;;;;;;1.83;100.00;102123.94;5347988;26;20074;-68
2024/04/23 00:28:06;;;;;;;20.80;7.07;;;;;;;1.84;100.00;102126.66;5345985;26;20005;-68
2024/04/23 00:30:31;;;;;;;18.48;6.60;;;;;;;1.79;100.00;102120.28;5347245;26;20346;-67
2024/04/23 00:32:56;;;;;;;18.75;6.93;;;;;;;1.80;100.00;102114.22;5348205;26;20004;-67
2024/04/23 00:35:22;;;;;;;18.88;7.22;;;;;;;1.82;100.00;102122.13;5347941;26;20000;-67
2024/04/23 00:37:47;;;;;;;19.25;6.82;;;;;;;1.77;100.00;102123.59;5348038;26;20001;-67
2024/04/23 00:40:32;;;;;;;19.08;7.13;;;;;;;1.77;100.00;102113.16;5342919;26;20071;-67
2024/04/23 00:42:57;;;;;;;19.20;7.13;;;;;;;1.74;100.00;102108.66;5346271;26;20009;-70
2024/04/23 00:45:31;;;;;;;18.45;6.80;;;;;;;1.71;100.00;102101.53;5347479;26;20011;-70
2024/04/23 00:47:57;;;;;;;18.30;6.88;;;;;;;1.73;100.00;102106.84;5340871;26;20011;-67
2024/04/23 00:50:23;;;;;;;18.80;7.45;;;;;;;1.69;100.00;102105.75;5390421;26;20004;-69
2024/04/23 00:52:48;;;;;;;20.02;7.10;;;;;;;1.66;100.00;102104.66;5347728;26;20011;-68
2024/04/23 00:55:14;;;;;;;18.55;6.97;;;;;;;1.54;100.00;102110.03;5347543;26;19993;-68
2024/04/23 00:57:40;;;;;;;19.65;7.40;;;;;;;1.52;100.00;102106.44;5345958;26;20075;-67
2024/04/23 01:00:06;;;;;;;19.42;7.35;;;;;;;1.52;100.00;102117.75;5347728;26;19997;-69
2024/04/23 01:02:32;;;;;;;19.63;7.32;;;;;;;1.42;100.00;102111.91;5345888;26;20074;-68
2024/04/23 01:04:57;;;;;;;21.02;7.57;;;;;;;1.38;100.00;102110.78;5347744;26;20005;-69
2024/04/23 01:07:23;;;;;;;19.42;7.40;;;;;;;1.34;100.00;102114.94;5347915;26;20001;-73
2024/04/23 01:09:48;;;;;;;18.92;7.20;;;;;;;1.34;100.00;102114.94;5347697;26;20071;-73
2024/04/23 01:12:14;;;;;;;20.45;7.70;;;;;;;1.32;100.00;102108.72;5347859;26;20008;-72
2024/04/23 01:14:42;;;;;;;20.52;7.53;;;;;;;1.30;100.00;102107.72;5347549;26;19993;-75
2024/04/23 01:17:09;;;;;;;19.38;7.28;;;;;;;1.23;100.00;102109.88;5347645;26;20062;-75
2024/04/23 01:19:39;;;;;;;19.67;7.50;;;;;;;1.12;100.00;102103.97;5347378;26;20336;-75
2024/04/23 01:22:18;;;;;;;20.08;7.57;;;;;;;1.07;100.00;102106.28;5347351;26;20009;-75
2024/04/23 01:25:03;;;;;;;19.50;7.55;;;;;;;1.12;100.00;102109.16;5347360;26;20000;-75
2024/04/23 01:27:29;;;;;;;19.73;7.78;;;;;;;1.03;100.00;102107.81;5341950;26;20074;-76
2024/04/23 01:29:56;;;;;;;20.48;7.70;;;;;;;1.06;100.00;102111.41;5347089;26;20000;-75
2024/04/23 01:32:23;;;;;;;20.23;7.72;;;;;;;1.04;100.00;102111.31;5340813;26;19996;-74
2024/04/23 01:34:51;;;;;;;19.10;7.40;;;;;;;0.96;100.00;102112.50;5346950;26;19993;-72
2024/04/23 01:37:17;;;;;;;20.08;8.00;;;;;;;0.91;100.00;102104.41;5347118;26;20467;-73
2024/04/23 01:39:43;;;;;;;20.02;7.65;;;;;;;0.94;100.00;102096.78;5345560;26;20465;-73
2024/04/23 01:42:09;;;;;;;20.20;8.10;;;;;;;0.94;100.00;102099.38;5346986;26;20012;-72
2024/04/23 01:44:34;;;;;;;19.58;7.97;;;;;;;0.96;100.00;102092.59;5345004;26;20008;-72
2024/04/23 01:47:00;;;;;;;20.55;7.78;;;;;;;0.95;100.00;102090.78;5345509;26;20001;-72
2024/04/23 01:49:25;;;;;;;20.58;7.90;;;;;;;0.86;100.00;102090.22;5346873;26;20317;-71
2024/04/23 01:51:51;;;;;;;19.92;8.13;;;;;;;0.81;100.00;102081.19;5340042;26;20439;-70
2024/04/23 01:54:16;;;;;;;19.27;7.93;;;;;;;0.75;100.00;102080.81;5347121;26;20001;-71
2024/04/23 01:56:42;;;;;;;19.67;8.00;;;;;;;0.74;100.00;102073.78;5316146;26;20008;-71
2024/04/23 01:59:07;;;;;;;20.85;8.20;;;;;;;0.63;100.00;102075.72;5346979;26;20100;-71
2024/04/23 02:01:36;;;;;;;20.60;8.30;;;;;;;0.56;100.00;102071.81;5345037;26;20448;-72
2024/04/23 02:04:01;;;;;;;19.92;8.10;;;;;;;0.44;100.00;102068.44;5346928;26;20451;-72
2024/04/23 02:06:27;;;;;;;19.90;8.18;;;;;;;0.39;100.00;102075.03;5347092;26;20005;-71
2024/04/23 02:08:54;;;;;;;19.95;8.35;;;;;;;0.29;100.00;102069.22;5389148;26;20428;-68
2024/04/23 02:11:20;;;;;;;20.52;8.98;;;;;;;0.15;100.00;102070.00;5346463;26;20483;-69
2024/04/23 02:13:45;;;;;;;21.00;8.88;;;;;;;0.20;100.00;102062.50;5347080;26;20001;-70
2024/04/23 02:16:10;;;;;;;20.52;8.50;;;;;;;0.18;100.00;102065.00;5346466;26;20339;-67
2024/04/23 02:18:36;;;;;;;19.73;8.30;;;;;;;0.14;100.00;102057.81;5346374;26;20405;-68
2024/04/23 02:21:01;;;;;;;20.80;8.52;;;;;;;0.11;100.00;102049.81;5346468;26;20074;-67
2024/04/23 02:23:26;;;;;;;20.40;8.75;;;;;;;0.02;100.00;102052.69;5346613;26;20007;-69
2024/04/23 02:25:52;;;;;;;20.77;9.00;;;;;;;0.07;100.00;102045.19;5346259;26;20004;-71
2024/04/23 02:28:17;;;;;;;21.05;9.02;;;;;;;-0.05;100.00;102045.28;5346872;26;20008;-71
2024/04/23 02:30:42;;;;;;;20.70;8.55;;;;;;;-0.08;100.00;102047.69;5346189;26;20037;-71
2024/04/23 02:33:11;;;;;;;20.83;8.70;;;;;;;-0.16;100.00;102051.44;5346383;26;19997;-71
2024/04/23 02:35:38;;;;;;;20.20;8.30;;;;;;;-0.15;100.00;102056.75;5346450;26;20003;-72
2024/04/23 02:38:03;;;;;;;20.60;8.82;;;;;;;-0.28;100.00;102046.34;5346229;26;20000;-71
2024/04/23 02:40:29;;;;;;;20.77;8.82;;;;;;;-0.20;100.00;102055.56;5345937;26;19993;-72
2024/04/23 02:42:54;;;;;;;19.65;8.75;;;;;;;-0.23;100.00;102055.34;5346294;26;20012;-72
2024/04/23 02:45:19;;;;;;;20.67;8.50;;;;;;;-0.28;100.00;102054.13;5345843;26;19997;-71
2024/04/23 02:47:45;;;;;;;20.00;8.75;;;;;;;-0.33;100.00;102052.94;5346369;26;20485;-72
2024/04/23 02:50:10;;;;;;;20.23;8.38;;;;;;;-0.40;100.00;102052.50;5346392;26;20005;-71
2024/04/23 02:52:35;;;;;;;20.00;8.50;;;;;;;-0.34;100.00;102051.13;5347360;26;20037;-72
2024/04/23 02:55:01;;;;;;;20.77;8.93;;;;;;;-0.36;100.00;102059.72;5349694;26;19993;-73
2024/04/23 02:57:26;;;;;;;20.60;9.07;;;;;;;-0.38;100.00;102056.13;5349152;26;20328;-69
2024/04/23 02:59:51;;;;;;;21.42;9.40;;;;;;;-0.33;100.00;102053.81;5347348;26;19997;-69
2024/04/23 03:02:17;;;;;;;21.83;9.57;;;;;;;-0.22;100.00;102045.06;5343121;26;20020;-67
2024/04/23 03:04:42;;;;;;;22.05;9.90;;;;;;;-0.15;100.00;102048.97;5348876;26;20464;-69
2024/04/23 03:07:07;;;;;;;21.33;9.93;;;;;;;-0.11;100.00;102045.78;5348831;26;20402;-72
2024/04/23 03:09:33;;;;;;;21.30;9.70;;;;;;;-0.12;100.00;102043.06;5349058;26;20134;-69
2024/04/23 03:11:58;;;;;;;20.08;8.98;;;;;;;-0.16;100.00;102047.19;5346977;26;20046;-74
2024/04/23 03:14:23;;;;;;;21.08;9.43;;;;;;;-0.17;100.00;102047.97;5349087;26;20382;-75
2024/04/23 03:16:49;;;;;;;21.50;9.55;;;;;;;-0.17;100.00;102055.75;5348964;26;20368;-68
2024/04/23 03:19:14;;;;;;;22.45;9.60;;;;;;;-0.29;100.00;102054.91;5348791;26;20321;-68
2024/04/23 03:21:54;;;;;;;21.40;9.50;;;;;;;-0.29;100.00;102049.72;5347205;26;20016;-67
2024/04/23 03:24:20;;;;;;;22.83;10.00;;;;;;;-0.39;100.00;102054.31;5344534;26;20029;-69
2024/04/23 03:26:46;;;;;;;21.20;10.10;;;;;;;-0.41;100.00;102040.31;5348874;26;20525;-67
2024/04/23 03:29:11;;;;;;;21.23;9.57;;;;;;;-0.38;100.00;102034.41;5348851;26;20000;-67
2024/04/23 03:31:36;;;;;;;21.48;10.18;;;;;;;-0.32;100.00;102034.84;5347034;26;20008;-70
2024/04/23 03:34:02;;;;;;;21.48;9.55;;;;;;;-0.30;100.00;102037.56;5348592;26;19996;-72
2024/04/23 03:36:27;;;;;;;22.02;10.02;;;;;;;-0.35;100.00;102037.22;5348827;26;20011;-71
2024/04/23 03:38:52;;;;;;;21.17;9.90;;;;;;;-0.42;100.00;102041.09;5348799;26;20004;-68
2024/04/23 03:41:18;;;;;;;20.95;9.40;;;;;;;-0.50;100.00;102047.47;5348619;26;20033;-68
2024/04/23 03:43:43;;;;;;;22.00;10.48;;;;;;;-0.43;100.00;102044.50;5348693;26;19993;-68
2024/04/23 03:46:08;;;;;;;21.65;10.00;;;;;;;-0.42;100.00;102048.00;5348731;26;20009;-68
2024/04/23 03:48:34;;;;;;;20.83;9.63;;;;;;;-0.36;100.00;102044.13;5348725;26;20008;-68
2024/04/23 03:50:59;;;;;;;21.23;10.15;;;;;;;-0.32;100.00;102050.44;5348587;26;20020;-68
2024/04/23 03:53:24;;;;;;;21.05;9.63;;;;;;;-0.29;100.00;102045.44;5348978;26;20007;-72
2024/04/23 03:55:50;;;;;;;21.95;9.93;;;;;;;-0.33;100.00;102050.34;5346500;26;19997;-72
2024/04/23 03:58:15;;;;;;;22.15;9.93;;;;;;;-0.39;100.00;102043.03;5348763;26;20007;-72
2024/04/23 04:00:40;;;;;;;21.38;9.80;;;;;;;-0.44;100.00;102044.38;5348432;26;20008;-69
2024/04/23 04:06:10;;;;;;;22.00;10.30;;;;;;;-0.57;100.00;102048.75;5345518;26;20501;-72
2024/04/23 04:08:40;;;;;;;21.40;9.77;;;;;;;-0.59;100.00;102045.13;5342146;26;20029;-72
2024/04/23 04:11:05;;;;;;;21.42;9.93;;;;;;;-0.64;100.00;102045.63;5348736;26;20001;-73
2024/04/23 04:13:32;;;;;;;21.73;10.07;;;;;;;-0.63;100.00;102040.53;5348409;26;20004;-72
2024/04/23 04:15:57;;;;;;;21.45;9.65;;;;;;;-0.60;100.00;102045.03;5348411;26;19993;-69
2024/04/23 04:18:23;;;;;;;22.65;10.30;;;;;;;-0.61;100.00;102045.81;5346927;26;19997;-71
2024/04/23 04:20:48;;;;;;;21.95;10.30;;;;;;;-0.61;100.00;102045.81;5348064;26;20004;-72
2024/04/23 04:23:14;;;;;;;24.52;10.27;;;;;;;-0.58;100.00;102043.47;5348162;26;20015;-68
2024/04/23 04:25:39;;;;;;;22.67;10.55;;;;;;;-0.57;100.00;102035.78;5348242;26;20008;-68
2024/04/23 04:28:05;;;;;;;23.27;12.73;;;;;;;-0.48;100.00;102037.19;5347885;26;20005;-68
2024/04/23 04:30:30;;;;;;;22.60;11.93;;;;;;;-0.51;100.00;102030.09;5347991;26;19997;-69
2024/04/23 04:32:55;;;;;;;22.35;10.68;;;;;;;-0.55;100.00;102035.88;5348018;26;19997;-69
2024/04/23 04:35:21;;;;;;;21.92;10.43;;;;;;;-0.58;100.00;102030.47;5346096;26;20004;-68
2024/04/23 04:37:46;;;;;;;22.90;10.68;;;;;;;-0.55;100.00;102034.16;5347900;26;20012;-68
2024/04/23 04:40:11;;;;;;;24.67;11.20;;;;;;;-0.58;100.00;102030.47;5346465;26;19993;-68
2024/04/23 04:42:37;;;;;;;21.35;10.32;;;;;;;-0.59;100.00;102034.75;5347590;26;19993;-68
2024/04/23 04:45:03;;;;;;;22.58;10.25;;;;;;;-0.58;100.00;102044.34;5340823;26;20071;-69
2024/04/23 04:47:29;;;;;;;21.83;10.55;;;;;;;-0.56;100.00;102036.66;5348133;26;20414;-75
2024/04/23 04:49:54;;;;;;;22.65;11.00;;;;;;;-0.59;100.00;102037.34;5347984;26;20004;-72
2024/04/23 04:52:19;;;;;;;23.23;10.57;;;;;;;-0.60;100.00;102032.06;5346186;26;20012;-71
2024/04/23 04:54:45;;;;;;;22.50;10.43;;;;;;;-0.61;100.00;102035.44;5347534;26;20004;-75
2024/04/23 04:57:10;;;;;;;21.45;10.68;;;;;;;-0.59;100.00;102039.94;5347372;26;20012;-74
2024/04/23 04:59:35;;;;;;;21.88;10.00;;;;;;;-0.57;100.00;102042.66;5348033;26;19993;-70
2024/04/23 05:02:01;;;;;;;22.00;10.85;;;;;;;-0.54;100.00;102038.59;5344301;26;20078;-70
2024/04/23 05:04:26;;;;;;;21.85;10.10;;;;;;;-0.54;100.00;102041.19;5347594;26;20000;-75
2024/04/23 05:06:51;;;;;;;22.63;11.00;;;;;;;-0.49;100.00;102036.28;5347869;26;20001;-74
2024/04/23 05:09:17;;;;;;;22.85;12.20;;;;;;;-0.45;100.00;102037.38;5347435;26;20347;-71
2024/04/23 05:11:42;;;;;;;22.77;12.25;;;;;;;-0.44;100.00;102045.28;5347838;26;20000;-72
2024/04/23 05:14:08;;;;;;;23.98;14.05;;;;;;;-0.39;100.00;102046.50;5347613;26;19997;-73
2024/04/23 05:16:33;;;;;;;23.02;11.45;;;;;;;-0.38;100.00;102039.59;5347129;26;20013;-74
2024/04/23 05:18:59;;;;;;;21.40;10.70;;;;;;;-0.31;100.00;102035.72;5347543;26;19993;-70
2024/04/23 05:21:25;;;;;;;23.20;11.77;;;;;;;-0.31;100.00;102043.53;5347575;26;19997;-73
2024/04/23 05:23:50;;;;;;;23.02;11.23;;;;;;;-0.31;100.00;102046.13;5347394;26;20735;-72
2024/04/23 05:26:15;;;;;;;23.75;11.77;;;;;;;-0.24;100.00;102043.16;5347314;26;20262;-69
2024/04/23 05:28:41;;;;;;;23.98;13.18;;;;;;;-0.24;100.00;102035.34;5345345;26;19997;-70
2024/04/23 05:33:50;;;;;;;24.70;14.80;;;;;;;-0.10;100.00;102047.59;5347124;26;20494;-71
2024/04/23 05:36:18;;;;;;;24.25;13.32;;;;;;;-0.01;100.00;102050.78;5347293;26;20001;-71
2024/04/23 05:38:43;;;;;;;23.27;11.80;;;;;;;0.08;100.00;102052.19;5347308;26;20021;-69
2024/04/23 05:41:08;;;;;;;23.63;13.18;;;;;;;0.20;100.00;102052.09;5346821;26;20044;-72
2024/04/23 05:43:34;;;;;;;23.88;13.48;;;;;;;0.31;100.00;102040.72;5347190;26;19993;-71
2024/04/23 05:45:59;;;;;;;23.73;12.40;;;;;;;0.36;100.00;102041.00;5346928;26;20012;-72
2024/04/23 05:49:02;;;;;;;23.70;12.65;;;;;;;0.48;100.00;102041.78;5346895;26;20455;-73
2024/04/23 05:52:05;;;;;;;23.42;12.77;;;;;;;0.58;100.00;102038.97;5340508;26;20005;-72
2024/04/23 05:55:09;;;;;;;24.17;12.73;;;;;;;0.71;100.00;102044.97;5383612;26;20029;-70
2024/04/23 05:57:35;;;;;;;23.35;12.50;;;;;;;0.83;100.00;102044.03;5341825;26;20007;-72
2024/04/23 06:00:01;;;;;;;23.83;12.88;;;;;;;0.96;100.00;102043.13;5347040;26;20443;-70
2024/04/23 06:02:26;;;;;;;23.60;12.95;;;;;;;0.99;100.00;102040.69;5344642;26;20004;-71
2024/04/23 06:04:51;;;;;;;23.48;12.70;;;;;;;1.09;100.00;102039.53;5346808;26;20327;-67
2024/04/23 06:07:17;;;;;;;24.02;13.80;;;;;;;1.18;100.00;102044.41;5344897;26;20447;-71
2024/04/23 06:09:43;;;;;;;23.85;13.40;;;;;;;1.28;100.00;102033.78;5344839;26;19997;-72
2024/04/23 06:12:08;;;;;;;23.80;13.02;;;;;;;1.34;100.00;102041.06;5346586;26;20336;-71
2024/04/23 06:14:34;;;;;;;23.88;13.13;;;;;;;1.44;100.00;102048.63;5346870;26;20012;-72
2024/04/23 06:17:27;;;;;;;24.98;14.10;;;;;;;1.55;100.00;102051.91;5346421;26;20008;-72
2024/04/23 06:19:53;;;;;;;24.85;14.13;;;;;;;1.69;100.00;102050.09;5340338;26;20001;-72
2024/04/23 06:22:19;;;;;;;25.00;13.70;;;;;;;1.76;100.00;102052.25;5346390;26;20462;-72
2024/04/23 06:24:47;;;;;;;25.13;14.23;;;;;;;1.81;100.00;102055.16;5346494;26;20391;-71
2024/04/23 06:27:17;;;;;;;24.42;13.73;;;;;;;1.90;100.00;102059.19;5344933;26;20004;-68
2024/04/23 06:29:45;;;;;;;24.15;13.32;;;;;;;2.02;100.00;102059.00;5346206;26;19997;-68
2024/04/23 06:32:15;;;;;;;24.17;13.45;;;;;;;2.16;100.00;102045.91;5346816;26;19993;-72
2024/04/23 06:34:45;;;;;;;23.92;13.32;;;;;;;2.28;100.00;102050.91;5346072;26;20332;-71
2024/04/23 06:37:11;;;;;;;23.95;13.25;;;;;;;2.39;100.00;102049.81;5346423;26;19993;-69
2024/04/23 06:39:37;;;;;;;24.33;13.63;;;;;;;2.44;100.00;102045.75;5346328;26;20008;-71
2024/04/23 06:42:03;;;;;;;23.90;13.70;;;;;;;2.53;100.00;102050.59;5388628;26;20345;-68
2024/04/23 06:44:28;;;;;;;23.90;13.00;;;;;;;2.59;100.00;102043.09;5345719;26;20075;-68
2024/04/23 06:46:54;;;;;;;25.38;13.70;;;;;;;2.65;100.00;102046.06;5388829;26;20004;-67
2024/04/23 06:49:19;;;;;;;25.00;13.68;;;;;;;2.75;100.00;102037.94;5346130;26;20001;-69
2024/04/23 06:51:45;;;;;;;24.15;13.27;;;;;;;2.85;100.00;102039.31;5346025;26;20075;-68
2024/04/23 06:54:11;;;;;;;23.55;13.63;;;;;;;2.96;100.00;102035.59;5346257;26;20008;-68
2024/04/23 06:56:36;;;;;;;23.55;13.15;;;;;;;3.05;100.00;102048.25;5336153;26;20082;-68
2024/04/23 06:59:02;;;;;;;23.25;13.00;;;;;;;3.12;100.00;102036.44;5340255;26;20012;-68
2024/04/23 07:01:29;;;;;;;23.25;12.88;;;;;;;3.20;100.00;102039.44;5343891;26;20447;-69
2024/04/23 07:03:54;;;;;;;24.02;13.57;;;;;;;3.35;100.00;102039.34;5345482;26;20013;-68
2024/04/23 07:06:19;;;;;;;23.90;14.13;;;;;;;3.48;100.00;102037.47;5344790;26;20474;-67
2024/04/23 07:08:46;;;;;;;23.25;13.30;;;;;;;3.59;100.00;102044.97;5345402;26;20012;-68
2024/04/23 07:11:12;;;;;;;23.70;13.40;;;;;;;3.77;100.00;102045.94;5344905;26;20408;-67
2024/04/23 07:13:37;;;;;;;24.50;13.93;;;;;;;3.82;100.00;102043.56;5345215;26;20007;-68
2024/04/23 07:16:03;;;;;;;33.95;23.02;;;;;;;3.88;100.00;102041.22;5344854;26;20005;-72
2024/04/23 07:18:29;;;;;;;25.23;15.15;;;;;;;3.94;100.00;102043.25;5344529;26;20001;-71
2024/04/23 07:20:54;;;;;;;24.02;13.18;;;;;;;4.08;100.00;102043.94;5344758;26;20067;-68
2024/04/23 07:23:19;;;;;;;23.42;12.80;;;;;;;4.10;100.00;102035.34;5344901;26;20005;-69
2024/04/23 07:25:49;;;;;;;23.00;12.38;;;;;;;4.15;100.00;102043.44;5344750;26;20070;-68
2024/04/23 07:28:15;;;;;;;23.05;12.75;;;;;;;4.26;100.00;102041.34;5342870;26;19997;-68
2024/04/23 07:30:42;;;;;;;23.25;12.65;;;;;;;4.49;100.00;102032.91;5345206;26;20007;-68
2024/04/23 07:33:07;;;;;;;23.90;12.90;;;;;;;4.62;100.00;102026.53;5343649;26;20021;-69
2024/04/23 07:35:32;;;;;;;22.52;12.00;;;;;;;4.78;100.00;102028.16;5345382;26;20468;-68
2024/04/23 07:37:58;;;;;;;22.75;12.05;;;;;;;4.85;100.00;102032.84;5346290;26;20079;-69
2024/04/23 07:40:23;;;;;;;22.45;12.10;;;;;;;4.87;100.00;102028.56;5391231;26;20008;-67
2024/04/23 07:42:48;;;;;;;22.70;12.18;;;;;;;5.03;100.00;102024.03;5348725;26;20005;-67
2024/04/23 07:45:14;;;;;;;24.90;14.65;;;;;;;5.15;100.00;102023.69;5348527;26;20016;-67
2024/04/23 07:47:39;;;;;;;23.52;13.00;;;;;;;5.16;100.00;102017.66;5391031;26;19997;-68
2024/04/23 07:50:06;;;;;;;24.92;12.70;;;;;;;5.28;100.00;102022.53;5348532;26;20401;-71
2024/04/23 07:52:31;;;;;;;23.08;11.50;;;;;;;5.31;100.00;102012.19;5348408;26;20008;-68
2024/04/23 07:54:56;;;;;;;22.67;11.98;;;;;;;5.46;100.00;102020.75;5348410;26;20000;-71
2024/04/23 07:57:22;;;;;;;23.92;13.13;;;;;;;5.65;100.00;102013.66;5348638;26;19996;-72
2024/04/23 07:59:48;;;;;;;22.73;12.27;;;;;;;5.72;100.00;102021.88;5348748;26;20388;-70
2024/04/23 08:02:13;;;;;;;22.63;11.63;;;;;;;5.67;100.00;102019.88;5342260;26;20078;-71
2024/04/23 08:04:38;;;;;;;22.67;11.15;;;;;;;5.73;100.00;102020.13;5348618;26;20407;-71
2024/04/23 08:07:04;;;;;;;22.48;11.30;;;;;;;6.04;100.00;102019.75;5348551;26;20509;-70
2024/04/23 08:09:29;;;;;;;21.23;10.52;;;;;;;6.68;100.00;102019.63;5348493;26;20351;-71
2024/04/23 08:11:55;;;;;;;22.08;10.85;;;;;;;7.57;100.00;102011.53;5348411;26;20012;-71
2024/04/23 08:14:20;;;;;;;21.45;10.60;;;;;;;8.33;100.00;102010.59;5348053;26;20008;-75
2024/04/23 08:16:46;;;;;;;20.23;9.55;;;;;;;8.93;100.00;102011.56;5348560;26;20070;-68
2024/04/23 08:19:15;;;;;;;20.10;9.20;;;;;;;9.72;100.00;102009.38;5348396;26;20071;-68
2024/04/23 08:21:42;;;;;;;20.48;8.98;;;;;;;10.20;100.00;102012.34;5341865;26;20007;-66
2024/04/23 08:24:08;;;;;;;20.58;8.95;;;;;;;10.29;100.00;102008.19;5348478;26;20005;-66
2024/04/23 08:26:33;;;;;;;19.90;8.57;;;;;;;10.64;100.00;102009.88;5348047;26;19993;-66
2024/04/23 08:28:58;;;;;;;18.98;7.90;;;;;;;10.80;100.00;102009.38;5346098;26;20075;-67
2024/04/23 08:31:24;;;;;;;19.95;8.15;;;;;;;10.88;100.00;102009.53;5348041;26;19993;-68
2024/04/23 08:33:50;;;;;;;19.60;8.18;;;;;;;11.04;100.00;102010.75;5347967;26;19997;-67
2024/04/23 08:36:16;;;;;;;19.67;8.48;;;;;;;11.45;100.00;102013.31;5347762;26;20076;-68
2024/04/23 08:38:41;;;;;;;19.17;8.02;;;;;;;12.03;100.00;102007.34;5348001;26;19996;-67
2024/04/23 08:41:13;;;;;;;18.63;8.02;;;;;;;12.62;100.00;102011.78;5348063;26;20008;-67
2024/04/23 08:44:07;;;;;;;19.02;7.82;;;;;;;12.72;100.00;102005.72;5341015;26;20001;-66
2024/04/23 08:46:33;;;;;;;19.33;7.20;;;;;;;12.75;100.00;102001.34;5341671;26;20005;-72
2024/04/23 08:49:00;;;;;;;18.55;8.05;;;;;;;12.85;100.00;102000.59;5346149;26;20007;-67
2024/04/23 08:51:26;;;;;;;19.73;8.00;;;;;;;12.72;100.00;101996.88;5347339;26;20452;-71
2024/04/23 08:53:53;;;;;;;19.13;7.80;;;;;;;12.77;100.00;101988.97;5347912;26;20321;-70
2024/04/23 08:56:25;;;;;;;18.58;7.50;;;;;;;13.27;100.00;101994.03;5347805;26;20012;-68
2024/04/23 08:58:52;;;;;;;21.40;10.97;;;;;;;13.60;100.00;101998.84;5347678;26;20029;-73
2024/04/23 09:01:35;;;;;;;20.00;8.13;;;;;;;14.21;100.00;101989.66;5342854;26;20221;-71
2024/04/23 09:04:03;;;;;;;18.30;7.15;;;;;;;14.36;100.00;101986.22;5347600;26;20000;-72
2024/04/23 09:06:29;;;;;;;19.35;7.32;;;;;;;14.32;100.00;101986.19;5347649;26;20001;-70
2024/04/23 09:08:57;;;;;;;19.67;7.60;;;;;;;14.24;100.00;101983.44;5347659;26;20465;-73
2024/04/23 09:11:25;;;;;;;18.60;7.40;;;;;;;14.60;92.09;101985.44;5347623;26;20015;-74
2024/04/23 09:13:50;;;;;;;18.88;6.90;;;;;;;14.41;89.72;101986.22;5347304;26;20332;-72
2024/04/23 09:16:16;;;;;;;18.10;7.40;;;;;;;13.36;94.05;101975.56;5347669;26;20008;-67
2024/04/23 09:18:41;;;;;;;18.23;7.00;;;;;;;12.72;100.00;101967.69;5347285;26;19997;-67
2024/04/23 09:21:07;;;;;;;18.10;7.30;;;;;;;13.03;100.00;101970.75;5347556;26;20387;-67
2024/04/23 09:23:33;;;;;;;19.25;7.10;;;;;;;14.11;100.00;101964.75;5340755;26;20100;-67
2024/04/23 09:25:59;;;;;;;18.92;7.30;;;;;;;14.57;95.05;101964.16;5347564;26;20430;-66
2024/04/23 09:28:25;;;;;;;18.83;7.20;;;;;;;15.80;86.78;101962.78;5347004;26;20321;-66
2024/04/23 09:30:51;;;;;;;18.17;6.90;;;;;;;16.53;68.28;101960.97;5347457;26;19996;-67
2024/04/23 09:33:23;;;;;;;19.52;8.43;;;;;;;17.18;68.03;101963.38;5347329;26;20001;-67
2024/04/23 09:36:04;;;;;;;17.55;6.60;;;;;;;17.88;63.21;101953.09;5346987;26;19997;-66
2024/04/23 09:38:42;;;;;;;17.45;6.55;;;;;;;18.08;55.56;101959.19;5347021;26;20011;-68
2024/04/23 09:41:09;;;;;;;18.08;6.90;;;;;;;18.61;55.93;101950.59;5341498;26;20004;-67
2024/04/23 09:43:38;;;;;;;18.42;7.15;;;;;;;19.33;58.39;101946.13;5383811;26;20002;-67
2024/04/23 09:46:04;;;;;;;18.00;7.00;;;;;;;19.44;54.26;101946.88;5340204;26;20655;-67
2024/04/23 09:48:30;;;;;;;18.35;6.93;;;;;;;19.57;52.68;101946.66;5346789;26;20443;-70
2024/04/23 09:51:05;;;;;;;18.38;7.28;;;;;;;19.97;51.12;101943.38;5347198;26;19993;-70
2024/04/23 09:53:36;;;;;;;18.17;6.53;;;;;;;20.54;48.08;101947.66;5347003;26;19993;-71
2024/04/23 09:56:03;;;;;;;17.65;6.72;;;;;;;20.06;44.39;101939.63;5347034;26;19997;-71
2024/04/23 09:58:29;;;;;;;18.63;7.13;;;;;;;19.92;47.62;101931.81;5347077;26;20340;-69
2024/04/23 10:00:56;;;;;;;17.60;6.93;;;;;;;17.73;45.70;101932.72;5344520;26;19997;-70
2024/04/23 10:03:24;;;;;;;17.83;6.88;;;;;;;15.37;51.83;101917.44;5344765;26;20069;-70
2024/04/23 10:05:51;;;;;;;17.92;7.13;;;;;;;14.22;64.11;101916.94;5346597;26;20033;-69
2024/04/23 10:08:41;;;;;;;18.27;7.13;;;;;;;13.74;67.65;101921.03;5338724;26;20074;-66
2024/04/23 10:11:10;;;;;;;18.85;7.30;;;;;;;12.80;73.36;101910.34;5345654;26;20062;-66
2024/04/23 10:13:44;;;;;;;18.63;7.47;;;;;;;12.55;84.53;101912.69;5344111;26;20001;-66
2024/04/23 10:16:23;;;;;;;18.85;6.97;;;;;;;12.78;86.42;101906.75;5345780;26;20459;-66
2024/04/23 10:19:11;;;;;;;17.67;7.05;;;;;;;13.67;74.52;101908.56;5382362;26;20001;-65
2024/04/23 10:21:42;;;;;;;18.30;7.10;;;;;;;16.51;60.07;101899.59;5345641;26;20332;-68
2024/04/23 10:24:09;;;;;;;17.95;7.13;;;;;;;17.14;53.62;101905.50;5346045;26;20007;-66
2024/04/23 10:26:40;;;;;;;17.30;6.78;;;;;;;16.77;56.30;101895.88;5345789;26;20016;-65
2024/04/23 10:29:07;;;;;;;19.13;7.60;;;;;;;15.18;56.75;101901.41;5346571;26;19993;-66
2024/04/23 10:31:33;;;;;;;17.98;7.10;;;;;;;14.17;63.93;101893.88;5346738;26;20005;-66
2024/04/23 10:34:01;;;;;;;18.17;7.70;;;;;;;13.50;77.67;101887.16;5344917;26;19996;-67
2024/04/23 10:36:28;;;;;;;18.80;7.65;;;;;;;12.71;80.48;101879.28;5346372;26;20037;-67
2024/04/23 10:38:58;;;;;;;18.40;7.50;;;;;;;12.24;77.51;101887.50;5344245;26;20464;-69
2024/04/23 10:41:24;;;;;;;18.42;7.38;;;;;;;12.17;86.98;101878.59;5346126;26;20012;-66
2024/04/23 10:43:51;;;;;;;18.45;7.20;;;;;;;12.51;78.77;101879.03;5346139;26;19993;-66
2024/04/23 10:46:17;;;;;;;18.55;6.97;;;;;;;12.89;77.76;101867.09;5346218;26;20009;-67
2024/04/23 10:48:43;;;;;;;19.05;7.35;;;;;;;13.45;69.74;101870.31;5339503;26;19992;-70
2024/04/23 10:51:09;;;;;;;18.48;7.22;;;;;;;15.71;65.40;101864.16;5345968;26;20425;-67
2024/04/23 10:53:35;;;;;;;18.15;7.15;;;;;;;17.99;53.77;101865.66;5343854;26;19992;-67
2024/04/23 10:56:00;;;;;;;18.00;7.47;;;;;;;18.20;51.19;101871.66;5345900;26;20005;-69
2024/04/23 10:58:26;;;;;;;18.90;7.05;;;;;;;16.24;49.68;101857.88;5345915;26;20012;-74
2024/04/23 11:01:11;;;;;;;18.30;7.57;;;;;;;16.49;56.00;101857.78;5345248;26;19997;-72
2024/04/23 11:03:36;;;;;;;17.67;6.78;;;;;;;18.79;51.18;101856.66;5338955;26;19997;-68
2024/04/23 11:06:02;;;;;;;17.55;6.47;;;;;;;18.68;44.89;101858.59;5345806;26;20428;-67
2024/04/23 11:08:28;;;;;;;17.15;6.75;;;;;;;19.55;43.62;101860.00;5345869;26;20008;-71
2024/04/23 11:11:06;;;;;;;17.90;7.18;;;;;;;21.29;43.47;101853.78;5346067;26;19993;-71
2024/04/23 11:13:40;;;;;;;17.27;6.22;;;;;;;22.75;38.30;101851.59;5347504;26;20398;-71
2024/04/23 11:16:16;;;;;;;16.05;5.97;;;;;;;22.63;37.63;101843.91;5349218;26;20012;-71
2024/04/23 11:18:43;;;;;;;17.00;6.60;;;;;;;20.07;39.33;101845.66;5341541;26;19997;-70